Time;durP1;ratioP1;P1;durP2;ratioP2;P2;SDS_P1;SDS_P2;PMS_P1;PMS_P2;Temp;Humidity;BMP_temperature;BMP_pressure;BME280_temperature;BME280_humidity;BME280_pressure;Samples;Min_cycle;Max_cycle;Signal;HPM_P1;HPM_P2
2021/10/05 00:00:14;;;;;;;16.35;8.82;;;;;;;9.95;100.00;95421.81;10304282;28;20057;-73
2021/10/05 00:05:15;;;;;;;19.35;9.40;;;;;;;9.93;100.00;95422.06;10321219;28;20038;-69
2021/10/05 00:10:15;;;;;;;14.50;7.82;;;;;;;9.73;100.00;95420.78;10320949;28;20027;-75
2021/10/05 00:15:16;;;;;;;13.07;8.52;;;;;;;9.75;100.00;95413.28;10320777;28;20500;-68
2021/10/05 00:20:17;;;;;;;13.50;8.32;;;;;;;9.66;100.00;95420.16;10321143;28;20689;-75
2021/10/05 00:25:17;;;;;;;11.32;7.22;;;;;;;9.71;100.00;95416.72;10320754;28;20559;-68
2021/10/05 00:30:18;;;;;;;12.98;7.88;;;;;;;9.63;100.00;95420.66;10320552;28;20026;-73
2021/10/05 00:35:18;;;;;;;15.52;6.82;;;;;;;9.64;100.00;95416.94;10321376;28;20084;-74
2021/10/05 00:40:19;;;;;;;14.43;8.20;;;;;;;9.60;100.00;95418.50;10303688;28;20129;-73
2021/10/05 00:45:19;;;;;;;9.32;6.82;;;;;;;9.55;100.00;95413.03;10319842;28;20030;-69
2021/10/05 00:50:20;;;;;;;9.80;6.63;;;;;;;9.54;100.00;95408.72;10303321;28;20026;-69
2021/10/05 00:55:20;;;;;;;10.57;7.25;;;;;;;9.50;100.00;95412.97;10319733;28;20404;-72
2021/10/05 01:00:21;;;;;;;12.63;7.55;;;;;;;9.51;100.00;95412.72;10318522;28;20034;-72
2021/10/05 01:05:22;;;;;;;14.07;7.43;;;;;;;9.49;100.00;95408.66;10295069;28;20030;-73
2021/10/05 01:10:22;;;;;;;12.18;7.80;;;;;;;9.23;100.00;95402.97;10278367;28;20035;-73
2021/10/05 01:15:29;;;;;;;13.40;7.60;;;;;;;9.19;100.00;95389.25;10279932;28;20031;-76
2021/10/05 01:20:29;;;;;;;12.43;6.90;;;;;;;9.20;100.00;95395.44;10279181;28;20481;-73
2021/10/05 01:25:31;;;;;;;12.50;7.50;;;;;;;9.22;100.00;95391.44;10278511;28;20359;-69
2021/10/05 01:30:32;;;;;;;12.90;8.73;;;;;;;9.31;100.00;95388.34;10278281;28;20046;-73
2021/10/05 01:35:32;;;;;;;14.47;7.80;;;;;;;9.32;100.00;95387.25;10293856;28;20527;-73
2021/10/05 01:40:33;;;;;;;11.32;7.20;;;;;;;9.37;100.00;95388.13;10277293;28;20273;-67
2021/10/05 01:45:34;;;;;;;16.38;7.32;;;;;;;9.29;100.00;95379.72;10264721;28;20419;-74
2021/10/05 01:50:36;;;;;;;15.48;7.80;;;;;;;9.29;100.00;95387.75;10319424;28;20069;-73
2021/10/05 01:55:36;;;;;;;11.48;7.32;;;;;;;9.26;100.00;95393.63;10317167;28;20069;-76
2021/10/05 02:00:37;;;;;;;12.85;7.75;;;;;;;9.21;100.00;95394.38;10317179;28;20031;-69
2021/10/05 02:05:37;;;;;;;16.23;8.38;;;;;;;8.92;100.00;95393.69;10317319;28;20030;-72
2021/10/05 02:10:38;;;;;;;13.43;8.27;;;;;;;8.85;100.00;95402.72;10316389;28;20192;-76
2021/10/05 02:15:39;;;;;;;11.75;8.68;;;;;;;8.71;100.00;95401.44;10316618;28;20279;-74
2021/10/05 02:20:39;;;;;;;12.05;7.22;;;;;;;8.46;100.00;95397.28;10316875;28;20041;-73
2021/10/05 02:25:40;;;;;;;9.23;6.88;;;;;;;8.33;100.00;95401.06;10316430;28;20026;-68
2021/10/05 02:30:41;;;;;;;15.63;7.20;;;;;;;8.32;100.00;95395.97;10316568;28;20062;-69
2021/10/05 02:35:41;;;;;;;12.88;8.20;;;;;;;8.21;100.00;95398.44;10316116;28;20026;-73
2021/10/05 02:40:42;;;;;;;11.57;7.77;;;;;;;8.00;100.00;95397.28;10316243;28;20481;-68
2021/10/05 02:45:42;;;;;;;12.60;7.80;;;;;;;7.82;100.00;95400.16;10316102;28;20285;-68
2021/10/05 02:50:43;;;;;;;15.45;8.05;;;;;;;7.79;100.00;95404.13;10317815;28;20384;-72
2021/10/05 02:55:43;;;;;;;18.63;10.00;;;;;;;7.69;100.00;95403.94;10316348;28;20471;-73
2021/10/05 03:00:44;;;;;;;16.42;9.73;;;;;;;7.72;100.00;95403.47;10316693;28;20137;-73
2021/10/05 03:05:44;;;;;;;16.67;10.00;;;;;;;7.67;100.00;95406.88;10332882;28;20030;-72
2021/10/05 03:10:45;;;;;;;15.80;9.27;;;;;;;7.52;100.00;95409.22;10314892;28;20026;-73
2021/10/05 03:15:45;;;;;;;16.75;10.98;;;;;;;7.45;100.00;95408.53;10315489;28;20301;-67
2021/10/05 03:20:46;;;;;;;15.43;11.05;;;;;;;7.28;100.00;95414.59;10316628;28;20030;-67
2021/10/05 03:25:46;;;;;;;17.88;11.68;;;;;;;7.25;100.00;95414.28;10315770;28;20516;-67
2021/10/05 03:30:47;;;;;;;20.55;13.02;;;;;;;7.31;100.00;95405.31;10315510;28;20099;-72
2021/10/05 03:35:47;;;;;;;20.88;11.27;;;;;;;7.22;100.00;95420.91;10338137;28;20019;-75
2021/10/05 03:40:49;;;;;;;24.07;11.67;;;;;;;7.19;100.00;95424.06;10322901;28;20213;-73
2021/10/05 03:45:50;;;;;;;25.15;12.40;;;;;;;7.10;100.00;95431.63;10306245;28;20285;-75
2021/10/05 03:50:52;;;;;;;19.95;11.63;;;;;;;7.17;100.00;95428.81;10322215;28;20133;-74
2021/10/05 03:55:56;;;;;;;18.90;11.98;;;;;;;7.19;100.00;95432.06;10321790;28;20516;-68
2021/10/05 04:00:56;;;;;;;20.35;12.07;;;;;;;7.20;100.00;95436.38;10304898;28;20026;-75
2021/10/05 04:05:57;;;;;;;21.00;13.80;;;;;;;7.17;100.00;95431.47;10321478;28;20045;-67
2021/10/05 04:10:58;;;;;;;21.17;12.98;;;;;;;7.12;100.00;95437.53;10321221;28;20038;-68
2021/10/05 04:15:58;;;;;;;21.23;13.38;;;;;;;7.23;100.00;95438.59;10322109;28;20026;-69
2021/10/05 04:20:59;;;;;;;18.50;11.85;;;;;;;7.20;100.00;95439.06;10321643;28;20105;-72
2021/10/05 04:25:59;;;;;;;22.25;12.75;;;;;;;7.19;100.00;95443.56;10321604;28;20030;-69
2021/10/05 04:31:00;;;;;;;24.93;13.43;;;;;;;7.18;100.00;95449.16;10320125;28;20145;-73
2021/10/05 04:36:00;;;;;;;29.43;13.00;;;;;;;7.15;100.00;95447.75;10320715;28;20795;-74
2021/10/05 04:41:00;;;;;;;22.00;15.52;;;;;;;7.19;100.00;95458.81;10320094;28;20332;-73
2021/10/05 04:46:01;;;;;;;28.63;16.67;;;;;;;7.16;100.00;95468.09;10316045;28;20026;-69
2021/10/05 04:51:01;;;;;;;28.55;15.98;;;;;;;7.25;100.00;95465.88;10318509;28;20034;-70
2021/10/05 04:56:04;;;;;;;33.92;14.45;;;;;;;7.34;100.00;95469.84;10318605;28;20054;-76
2021/10/05 05:01:04;;;;;;;27.63;17.42;;;;;;;7.39;100.00;95476.34;10317409;28;20797;-73
2021/10/05 05:06:04;;;;;;;23.83;15.67;;;;;;;7.53;100.00;95488.41;10318048;28;20026;-71
2021/10/05 05:11:05;;;;;;;25.73;16.90;;;;;;;7.76;100.00;95484.06;10317822;28;20282;-71
2021/10/05 05:16:05;;;;;;;23.17;15.20;;;;;;;7.96;100.00;95472.97;10317781;28;20367;-70
2021/10/05 05:21:06;;;;;;;25.25;16.20;;;;;;;8.18;100.00;95483.81;10317641;28;20026;-73
2021/10/05 05:26:06;;;;;;;24.85;14.45;;;;;;;8.36;100.00;95485.50;10317661;28;20033;-74
2021/10/05 05:31:07;;;;;;;24.27;13.82;;;;;;;8.55;100.00;95488.78;10317565;28;20034;-74
2021/10/05 05:36:08;;;;;;;20.65;12.95;;;;;;;8.79;100.00;95486.81;10316779;28;20026;-70
2021/10/05 05:41:09;;;;;;;27.42;12.18;;;;;;;8.93;100.00;95481.09;10317474;28;20117;-74
2021/10/05 05:46:11;;;;;;;20.40;14.95;;;;;;;9.01;100.00;95488.72;10317242;28;20026;-71
2021/10/05 05:51:11;;;;;;;32.13;17.05;;;;;;;8.96;100.00;95492.16;10316054;28;20022;-75
2021/10/05 05:56:12;;;;;;;26.48;13.75;;;;;;;9.11;100.00;95496.13;10315213;28;20050;-74
2021/10/05 06:01:12;;;;;;;27.85;14.75;;;;;;;9.43;100.00;95487.47;10316353;28;20035;-70
2021/10/05 06:06:13;;;;;;;26.17;14.25;;;;;;;9.65;100.00;95491.00;10315831;28;20045;-74
2021/10/05 06:11:14;;;;;;;21.02;13.68;;;;;;;9.94;100.00;95490.03;10316747;28;20503;-75
2021/10/05 06:16:17;;;;;;;19.35;11.13;;;;;;;10.47;100.00;95503.81;10315585;28;20026;-76
2021/10/05 06:21:18;;;;;;;17.10;9.00;;;;;;;10.82;100.00;95500.63;10315999;28;20030;-70
2021/10/05 06:26:19;;;;;;;14.35;8.15;;;;;;;10.97;100.00;95496.44;10315602;28;20039;-78
2021/10/05 06:31:19;;;;;;;12.80;7.13;;;;;;;11.06;100.00;95501.09;10297797;28;20035;-74
2021/10/05 06:36:19;;;;;;;14.48;7.18;;;;;;;11.33;100.00;95502.91;10304546;28;20026;-73
2021/10/05 06:41:21;;;;;;;13.23;8.50;;;;;;;11.32;100.00;95493.22;10317230;28;20026;-71
2021/10/05 06:46:22;;;;;;;15.20;7.28;;;;;;;11.46;100.00;95496.28;10315913;28;20281;-74
2021/10/05 06:51:23;;;;;;;15.77;8.30;;;;;;;11.93;100.00;95495.44;10318017;28;20047;-69
2021/10/05 06:56:24;;;;;;;16.45;8.80;;;;;;;12.63;100.00;95483.56;10316373;28;20054;-72
2021/10/05 07:01:25;;;;;;;17.35;9.32;;;;;;;12.69;100.00;95478.97;10312793;28;20161;-72
2021/10/05 07:06:26;;;;;;;18.13;9.57;;;;;;;12.85;100.00;95469.84;10308137;28;20308;-71
2021/10/05 07:11:26;;;;;;;18.02;9.45;;;;;;;13.54;100.00;95466.81;10323111;28;20353;-74
2021/10/05 07:16:27;;;;;;;20.70;9.70;;;;;;;13.77;100.00;95468.09;10323020;28;20026;-75
2021/10/05 07:21:28;;;;;;;22.83;10.40;;;;;;;13.85;100.00;95452.13;10317238;28;20798;-73
2021/10/05 07:26:29;;;;;;;17.73;10.45;;;;;;;13.93;100.00;95455.34;10305697;28;20042;-73
2021/10/05 07:31:34;;;;;;;18.08;8.38;;;;;;;14.08;100.00;95466.09;10322671;28;20124;-74
2021/10/05 07:36:35;;;;;;;11.95;8.15;;;;;;;14.25;100.00;95462.25;10302323;28;20089;-69
2021/10/05 07:41:35;;;;;;;20.10;9.10;;;;;;;14.53;98.30;95458.81;10295155;28;20537;-71
2021/10/05 07:46:36;;;;;;;14.00;7.70;;;;;;;15.64;88.76;95461.19;10298641;28;20278;-73
2021/10/05 07:51:36;;;;;;;13.60;6.77;;;;;;;16.59;78.68;95458.69;10285914;28;20290;-74
2021/10/05 07:56:37;;;;;;;13.05;7.10;;;;;;;16.40;81.89;95454.03;10285810;28;20359;-74
2021/10/05 08:01:37;;;;;;;9.88;6.32;;;;;;;15.92;82.55;95447.88;10320709;28;20074;-76
2021/10/05 08:06:38;;;;;;;13.55;6.20;;;;;;;16.13;80.17;95459.28;10321362;28;20045;-70
2021/10/05 08:11:38;;;;;;;15.83;6.67;;;;;;;16.79;77.13;95449.44;10320532;28;20031;-69
2021/10/05 08:16:39;;;;;;;15.40;5.63;;;;;;;20.30;57.09;95442.63;10321114;28;20060;-72
2021/10/05 08:21:39;;;;;;;10.17;4.90;;;;;;;24.04;44.36;95434.88;10318351;28;20348;-74
2021/10/05 08:26:40;;;;;;;14.90;4.35;;;;;;;25.58;38.76;95432.34;10317850;28;20122;-69
2021/10/05 08:31:40;;;;;;;9.23;4.67;;;;;;;26.22;38.65;95423.31;10262433;28;20027;-70
2021/10/05 08:36:41;;;;;;;9.20;4.50;;;;;;;25.51;38.66;95439.59;10262447;28;20288;-73
2021/10/05 08:41:46;;;;;;;9.32;4.32;;;;;;;23.51;41.49;95426.41;10277871;28;20271;-73
2021/10/05 08:46:46;;;;;;;11.38;6.55;;;;;;;22.03;44.39;95431.03;10275866;28;20559;-75
2021/10/05 08:51:48;;;;;;;11.13;6.20;;;;;;;19.93;50.50;95431.13;10277707;28;20034;-69
2021/10/05 08:56:49;;;;;;;14.52;6.10;;;;;;;19.72;53.59;95426.19;10282284;28;20073;-70
2021/10/05 09:01:50;;;;;;;13.63;5.70;;;;;;;20.50;52.10;95422.09;10280789;28;20042;-71
2021/10/05 09:06:55;;;;;;;10.13;5.97;;;;;;;20.43;51.61;95416.31;10278982;28;20026;-69
2021/10/05 09:11:55;;;;;;;12.68;5.22;;;;;;;21.18;48.94;95407.94;10277900;28;20050;-70
2021/10/05 09:16:58;;;;;;;5.37;4.07;;;;;;;22.02;48.02;95400.13;10301495;28;20023;-72
2021/10/05 09:21:59;;;;;;;8.07;4.25;;;;;;;22.70;44.54;95401.16;10318356;28;20803;-75
2021/10/05 09:27:04;;;;;;;9.48;3.78;;;;;;;22.65;44.30;95404.13;10301214;28;20018;-73
2021/10/05 09:32:07;;;;;;;6.68;3.50;;;;;;;22.33;45.83;95390.78;10317724;28;20022;-74
2021/10/05 09:37:34;;;;;;;6.53;3.28;;;;;;;22.60;45.87;95380.44;10316734;28;20484;-74
2021/10/05 09:42:43;;;;;;;10.73;2.83;;;;;;;23.03;44.26;95384.75;10315051;28;20032;-75
2021/10/05 09:47:52;;;;;;;4.60;3.50;;;;;;;22.96;44.67;95392.72;10313031;28;20572;-71
2021/10/05 09:52:58;;;;;;;4.22;2.80;;;;;;;23.97;42.75;95376.94;10304707;28;20109;-71
2021/10/05 09:57:59;;;;;;;6.28;2.95;;;;;;;25.99;38.35;95373.56;10277401;28;20572;-73
2021/10/05 10:03:00;;;;;;;13.02;2.83;;;;;;;28.56;34.00;95367.00;10312584;28;20034;-69
2021/10/05 10:08:00;;;;;;;3.55;2.05;;;;;;;31.64;29.06;95352.41;10300428;28;20420;-74
2021/10/05 10:13:05;;;;;;;2.13;1.63;;;;;;;32.94;26.89;95354.25;10315411;28;20518;-70
2021/10/05 10:18:18;;;;;;;2.60;1.83;;;;;;;33.68;25.69;95348.72;10315847;28;20018;-76
2021/10/05 10:23:27;;;;;;;7.07;1.70;;;;;;;35.24;23.42;95344.00;10294777;28;20038;-71
2021/10/05 10:28:30;;;;;;;1.55;1.30;;;;;;;35.59;23.32;95341.94;10303504;28;20033;-74
2021/10/05 10:33:47;;;;;;;2.75;1.70;;;;;;;36.20;23.30;95328.19;10313723;28;20037;-75
2021/10/05 10:38:48;;;;;;;2.67;1.50;;;;;;;35.58;22.83;95318.00;10312891;28;20038;-74
2021/10/05 10:44:00;;;;;;;3.35;1.70;;;;;;;34.87;23.50;95326.13;10316279;28;20030;-75
2021/10/05 10:49:03;;;;;;;6.22;1.55;;;;;;;36.13;22.55;95311.53;10321392;28;20100;-74
2021/10/05 10:54:15;;;;;;;2.92;1.75;;;;;;;35.91;22.66;95301.50;10320936;28;20042;-69
2021/10/05 10:59:19;;;;;;;2.97;2.13;;;;;;;34.69;23.29;95301.19;10321496;28;20064;-73
2021/10/05 11:04:21;;;;;;;3.22;1.77;;;;;;;35.95;22.34;95298.66;10316741;28;20491;-73
2021/10/05 11:09:26;;;;;;;2.10;1.60;;;;;;;35.08;22.54;95296.31;10307447;28;20029;-76
2021/10/05 11:14:33;;;;;;;7.82;2.05;;;;;;;34.75;23.18;95293.91;10302652;28;20030;-71
2021/10/05 11:19:38;;;;;;;4.05;1.90;;;;;;;33.94;24.29;95288.78;10305431;28;20035;-74
2021/10/05 11:24:45;;;;;;;4.75;2.42;;;;;;;31.05;26.95;95279.66;10294950;28;20022;-71
2021/10/05 11:29:46;;;;;;;8.00;2.40;;;;;;;27.91;30.84;95298.94;10295933;28;20030;-73
2021/10/05 11:34:50;;;;;;;4.05;2.90;;;;;;;25.62;34.74;95303.06;10321001;28;20566;-69
2021/10/05 11:39:51;;;;;;;3.83;2.58;;;;;;;24.13;37.34;95291.94;10321992;28;20034;-69
2021/10/05 11:44:59;;;;;;;4.82;2.53;;;;;;;23.39;38.93;95278.25;10320861;28;20117;-72
2021/10/05 11:50:05;;;;;;;6.20;2.88;;;;;;;22.89;40.35;95295.75;10320837;28;20022;-73
2021/10/05 11:55:06;;;;;;;6.78;3.33;;;;;;;22.25;41.98;95293.03;10320695;28;20085;-71
2021/10/05 12:00:09;;;;;;;5.40;2.95;;;;;;;21.99;43.69;95285.84;10319732;28;20051;-71
2021/10/05 12:05:24;;;;;;;3.35;2.42;;;;;;;21.62;43.52;95282.06;10320588;28;20105;-74
2021/10/05 12:10:25;;;;;;;3.83;3.10;;;;;;;21.62;44.64;95282.84;10320918;28;20050;-67
2021/10/05 12:15:26;;;;;;;3.95;2.63;;;;;;;21.25;45.02;95277.06;10320990;28;20023;-72
2021/10/05 12:20:27;;;;;;;4.35;3.15;;;;;;;21.20;45.50;95277.22;10318664;28;20061;-73
2021/10/05 12:25:27;;;;;;;5.25;3.17;;;;;;;21.12;45.83;95284.31;10319932;28;20117;-72
2021/10/05 12:30:31;;;;;;;3.53;2.93;;;;;;;20.91;46.16;95278.75;10318968;28;20077;-68
2021/10/05 12:35:37;;;;;;;4.03;2.75;;;;;;;20.94;46.91;95299.97;10320444;28;20030;-74
2021/10/05 12:40:57;;;;;;;4.20;2.65;;;;;;;20.61;47.32;95277.84;10319397;28;20018;-73
2021/10/05 12:45:58;;;;;;;3.83;2.72;;;;;;;20.43;48.36;95277.09;10301017;28;20034;-73
2021/10/05 12:50:59;;;;;;;5.70;2.58;;;;;;;20.31;48.63;95281.25;10281279;28;20066;-72
2021/10/05 12:56:00;;;;;;;3.60;3.05;;;;;;;20.32;48.27;95279.31;10289975;28;20141;-71
2021/10/05 13:01:00;;;;;;;3.88;2.67;;;;;;;20.25;48.69;95281.75;10286532;28;20030;-68
2021/10/05 13:06:01;;;;;;;3.83;2.95;;;;;;;19.96;48.85;95281.22;10318690;28;20030;-70
2021/10/05 13:11:01;;;;;;;4.72;3.22;;;;;;;19.78;50.06;95293.22;10306550;28;20018;-70
2021/10/05 13:16:02;;;;;;;7.22;3.30;;;;;;;19.69;50.82;95289.66;10317334;28;20078;-70
2021/10/05 13:21:02;;;;;;;4.93;2.70;;;;;;;19.39;50.24;95294.88;10316315;28;20048;-73
2021/10/05 13:26:03;;;;;;;4.97;3.03;;;;;;;19.19;50.80;95285.38;10300816;28;20102;-73
2021/10/05 13:31:04;;;;;;;4.65;3.10;;;;;;;19.15;50.70;95287.91;10301891;28;20440;-71
2021/10/05 13:36:04;;;;;;;5.72;3.13;;;;;;;18.93;51.63;95289.56;10305372;28;20033;-68
2021/10/05 13:41:08;;;;;;;10.97;3.60;;;;;;;18.75;53.53;95285.09;10265123;28;20088;-72
2021/10/05 13:46:09;;;;;;;6.40;3.35;;;;;;;18.74;53.02;95280.78;10301357;28;20031;-69
2021/10/05 13:51:09;;;;;;;4.57;2.90;;;;;;;18.76;53.57;95282.06;10291266;28;20022;-72
2021/10/05 13:56:10;;;;;;;6.27;3.37;;;;;;;18.60;52.88;95298.00;10281753;28;20309;-69
2021/10/05 14:01:10;;;;;;;6.90;3.38;;;;;;;18.62;54.37;95284.88;10275499;28;20286;-72
2021/10/05 14:06:12;;;;;;;6.23;3.53;;;;;;;18.73;54.22;95292.78;10275778;28;20030;-69
2021/10/05 14:11:13;;;;;;;4.85;3.45;;;;;;;18.79;54.78;95291.53;10300497;28;20295;-68
2021/10/05 14:16:13;;;;;;;9.77;3.58;;;;;;;18.74;53.90;95286.22;10315832;28;20666;-72
2021/10/05 14:21:17;;;;;;;6.68;4.20;;;;;;;18.68;55.27;95276.56;10313700;28;20030;-73
2021/10/05 14:26:18;;;;;;;8.48;4.45;;;;;;;18.43;57.25;95281.53;10305488;28;20077;-72
2021/10/05 14:31:20;;;;;;;5.45;4.00;;;;;;;18.35;58.97;95291.25;10303214;28;20026;-72
2021/10/05 14:36:21;;;;;;;5.15;4.15;;;;;;;18.17;59.52;95287.59;10312954;28;20029;-70
2021/10/05 14:41:21;;;;;;;7.30;4.70;;;;;;;17.90;61.38;95267.53;10314824;28;20408;-72
2021/10/05 14:46:22;;;;;;;6.25;4.28;;;;;;;17.85;61.71;95286.66;10312757;28;20092;-72
2021/10/05 14:51:22;;;;;;;5.77;3.57;;;;;;;17.63;61.19;95305.63;10314034;28;20409;-74
2021/10/05 14:56:23;;;;;;;7.00;4.38;;;;;;;17.34;62.69;95301.31;10313553;28;20042;-73
2021/10/05 15:01:23;;;;;;;9.32;4.53;;;;;;;17.20;64.40;95302.09;10314268;28;20578;-69
2021/10/05 15:06:24;;;;;;;6.45;4.60;;;;;;;17.09;65.79;95327.84;10315562;28;20057;-72
2021/10/05 15:11:24;;;;;;;7.17;5.00;;;;;;;17.08;65.51;95329.78;10314512;28;20412;-74
2021/10/05 15:16:25;;;;;;;7.03;4.85;;;;;;;17.07;65.21;95332.78;10315230;28;20449;-72
2021/10/05 15:21:25;;;;;;;12.93;5.47;;;;;;;16.94;66.59;95311.84;10314140;28;20030;-71
2021/10/05 15:26:26;;;;;;;8.40;4.87;;;;;;;16.81;68.38;95324.25;10314448;28;20412;-72
2021/10/05 15:31:27;;;;;;;9.75;5.47;;;;;;;16.70;69.94;95321.72;10320927;28;20033;-70
2021/10/05 15:36:27;;;;;;;5.35;4.50;;;;;;;16.58;71.92;95335.75;10316515;28;20436;-75
2021/10/05 15:41:28;;;;;;;10.52;5.15;;;;;;;16.42;73.72;95330.88;10321545;28;20567;-75
2021/10/05 15:46:29;;;;;;;9.18;5.60;;;;;;;16.32;75.09;95332.63;10320611;28;20085;-73
2021/10/05 15:51:49;;;;;;;6.72;4.65;;;;;;;16.13;77.64;95340.81;10321735;28;20081;-75
2021/10/05 15:56:50;;;;;;;10.60;4.82;;;;;;;15.92;80.88;95334.03;10319924;28;20084;-74
2021/10/05 16:01:51;;;;;;;7.38;5.15;;;;;;;15.80;82.39;95356.16;10336529;28;20130;-71
2021/10/05 16:06:52;;;;;;;14.57;6.40;;;;;;;15.67;84.08;95353.03;10320296;28;20034;-74
2021/10/05 16:11:55;;;;;;;7.65;5.43;;;;;;;15.52;86.17;95353.22;10320568;28;20394;-76
2021/10/05 16:16:55;;;;;;;10.93;5.78;;;;;;;15.37;88.42;95354.19;10319965;28;20030;-74
2021/10/05 16:21:55;;;;;;;10.70;6.67;;;;;;;15.35;88.95;95372.66;10319990;28;20460;-75
2021/10/05 16:26:56;;;;;;;8.87;5.83;;;;;;;15.26;89.90;95371.66;10314942;28;20281;-73
2021/10/05 16:31:56;;;;;;;8.07;5.82;;;;;;;15.10;91.01;95369.09;10318619;28;20388;-72
2021/10/05 16:36:58;;;;;;;7.50;5.25;;;;;;;15.06;91.34;95383.47;10308321;28;20439;-73
2021/10/05 16:41:59;;;;;;;8.95;5.80;;;;;;;14.97;92.00;95386.00;10318895;28;20033;-75
2021/10/05 16:47:02;;;;;;;7.57;5.32;;;;;;;14.88;92.33;95376.91;10318732;28;20492;-73
2021/10/05 16:52:03;;;;;;;13.45;6.65;;;;;;;14.71;93.84;95378.13;10319166;28;20022;-72
2021/10/05 16:57:04;;;;;;;7.88;5.53;;;;;;;14.60;94.69;95390.88;10319099;28;20042;-71
2021/10/05 17:02:06;;;;;;;12.70;6.10;;;;;;;14.58;94.74;95394.94;10308918;23;20052;-72
2021/10/05 17:07:08;;;;;;;9.77;5.88;;;;;;;14.55;95.66;95409.84;10239762;28;20069;-73
2021/10/05 17:12:09;;;;;;;13.27;5.05;;;;;;;14.46;96.04;95390.72;10227097;29;20052;-71
2021/10/05 17:17:10;;;;;;;10.48;5.80;;;;;;;14.39;96.32;95395.63;10214584;28;20122;-74
2021/10/05 17:22:10;;;;;;;8.77;5.38;;;;;;;14.38;96.19;95396.72;10199992;29;20031;-70
2021/10/05 17:27:11;;;;;;;9.40;5.90;;;;;;;14.37;96.43;95405.91;10214442;28;20125;-75
2021/10/05 17:32:11;;;;;;;12.80;5.78;;;;;;;14.30;97.12;95411.66;10190610;29;20039;-72
2021/10/05 17:37:12;;;;;;;11.60;5.35;;;;;;;14.27;97.45;95405.97;10171393;29;20056;-73
2021/10/05 17:42:13;;;;;;;6.85;4.90;;;;;;;14.27;97.98;95408.69;10173453;29;20043;-73
2021/10/05 17:47:13;;;;;;;9.43;5.05;;;;;;;14.22;98.46;95401.44;10166308;29;20044;-71
2021/10/05 17:52:14;;;;;;;17.23;5.67;;;;;;;14.14;99.72;95413.63;10158594;29;20036;-72
2021/10/05 17:57:14;;;;;;;10.17;6.53;;;;;;;13.95;100.00;95404.53;10174371;29;20323;-73
2021/10/05 18:02:15;;;;;;;12.15;6.25;;;;;;;13.73;100.00;95405.72;10187377;29;20322;-75
2021/10/05 18:07:22;;;;;;;18.30;7.68;;;;;;;13.53;100.00;95419.28;10197515;29;20048;-73
2021/10/05 18:12:22;;;;;;;8.98;6.38;;;;;;;13.52;100.00;95417.66;10166916;29;20036;-69
2021/10/05 18:17:23;;;;;;;7.73;5.67;;;;;;;13.42;100.00;95419.31;10172953;29;20043;-68
2021/10/05 18:22:23;;;;;;;11.40;7.25;;;;;;;13.37;100.00;95416.63;10157704;29;20323;-69
2021/10/05 18:27:24;;;;;;;14.68;7.18;;;;;;;13.29;100.00;95427.97;10126848;29;20020;-74
2021/10/05 18:32:26;;;;;;;10.73;6.57;;;;;;;13.29;100.00;95436.06;10117789;29;20031;-74
2021/10/05 18:37:27;;;;;;;12.98;6.78;;;;;;;13.20;100.00;95422.31;10154625;29;20039;-73
2021/10/05 18:42:27;;;;;;;8.15;6.38;;;;;;;13.14;100.00;95424.22;10156467;29;20497;-72
2021/10/05 18:47:27;;;;;;;9.00;7.25;;;;;;;13.19;100.00;95428.78;10156443;29;20036;-70
2021/10/05 18:52:28;;;;;;;13.38;6.95;;;;;;;13.14;100.00;95440.41;10158344;29;20051;-73
2021/10/05 18:57:29;;;;;;;12.82;7.70;;;;;;;12.95;100.00;95439.34;10156698;29;20562;-69
2021/10/05 19:02:29;;;;;;;10.23;6.15;;;;;;;13.02;100.00;95436.34;10153045;29;20055;-68
2021/10/05 19:07:29;;;;;;;9.45;5.80;;;;;;;12.97;100.00;95435.28;10163476;29;20705;-67
2021/10/05 19:12:30;;;;;;;8.48;5.47;;;;;;;12.94;100.00;95427.72;10167801;29;20115;-69
2021/10/05 19:17:30;;;;;;;13.57;6.85;;;;;;;12.85;100.00;95432.06;10185342;29;20043;-72
2021/10/05 19:22:31;;;;;;;12.25;5.43;;;;;;;12.72;100.00;95444.19;10145225;29;20028;-68
2021/10/05 19:27:33;;;;;;;9.40;6.03;;;;;;;12.59;100.00;95434.72;10161397;29;20032;-71
2021/10/05 19:32:33;;;;;;;11.30;6.68;;;;;;;12.55;100.00;95449.03;10161617;29;20279;-68
2021/10/05 19:37:34;;;;;;;7.18;4.75;;;;;;;12.59;100.00;95437.44;10123640;29;20520;-74
2021/10/05 19:42:34;;;;;;;14.57;5.90;;;;;;;12.53;100.00;95440.38;10122953;29;20043;-69
2021/10/05 19:47:35;;;;;;;10.13;4.82;;;;;;;12.53;100.00;95451.16;10123905;29;20141;-74
2021/10/05 19:52:35;;;;;;;7.68;5.00;;;;;;;12.51;100.00;95458.72;10138911;29;20460;-72
2021/10/05 19:57:39;;;;;;;8.60;4.65;;;;;;;12.53;100.00;95461.94;10122661;29;20036;-69
2021/10/05 20:02:41;;;;;;;10.85;5.63;;;;;;;12.46;100.00;95473.81;10169269;29;20115;-72
2021/10/05 20:07:41;;;;;;;12.63;6.10;;;;;;;12.45;100.00;95466.00;10180937;29;20035;-74
2021/10/05 20:12:42;;;;;;;6.20;4.32;;;;;;;12.52;100.00;95471.94;10162803;29;20020;-70
2021/10/05 20:17:43;;;;;;;8.20;4.43;;;;;;;12.55;100.00;95482.19;10164035;29;20032;-71
2021/10/05 20:22:44;;;;;;;10.85;4.32;;;;;;;12.61;100.00;95480.31;10164980;29;20379;-70
2021/10/05 20:27:45;;;;;;;7.65;4.28;;;;;;;12.57;100.00;95484.63;10163065;29;20032;-73
2021/10/05 20:32:46;;;;;;;5.13;4.43;;;;;;;12.53;99.14;95489.75;10170118;29;20056;-71
2021/10/05 20:37:46;;;;;;;6.28;4.53;;;;;;;12.49;96.36;95494.06;10165911;29;20475;-76
2021/10/05 20:42:47;;;;;;;8.53;3.73;;;;;;;12.53;94.87;95476.25;10165261;29;20095;-69
2021/10/05 20:47:47;;;;;;;8.00;3.85;;;;;;;12.50;94.58;95484.06;10165958;29;20682;-70
2021/10/05 20:52:48;;;;;;;12.10;3.93;;;;;;;12.48;94.93;95489.72;10164370;29;20024;-70
2021/10/05 20:57:48;;;;;;;8.43;4.75;;;;;;;12.35;94.74;95482.97;10165739;29;20292;-70
2021/10/05 21:02:49;;;;;;;10.27;4.00;;;;;;;12.31;94.24;95487.25;10162178;29;20048;-74
2021/10/05 21:07:49;;;;;;;10.53;4.20;;;;;;;12.29;93.82;95492.91;10164523;29;20299;-74
2021/10/05 21:12:49;;;;;;;4.15;3.28;;;;;;;12.27;93.75;95505.84;10163996;29;20286;-70
2021/10/05 21:17:50;;;;;;;7.00;4.03;;;;;;;12.14;93.84;95514.44;10163125;29;20043;-70
2021/10/05 21:22:50;;;;;;;9.23;3.70;;;;;;;12.14;93.06;95506.34;10147714;29;20028;-72
2021/10/05 21:27:51;;;;;;;6.03;3.40;;;;;;;12.13;89.80;95505.50;10163073;29;20350;-69
2021/10/05 21:32:51;;;;;;;6.75;4.07;;;;;;;12.13;91.28;95508.22;10163294;29;20123;-71
2021/10/05 21:37:52;;;;;;;7.13;3.60;;;;;;;12.02;91.04;95511.94;10163363;29;20020;-71
2021/10/05 21:42:52;;;;;;;8.48;4.28;;;;;;;11.92;91.24;95522.66;10147474;29;20292;-77
2021/10/05 21:47:53;;;;;;;10.20;4.10;;;;;;;11.77;92.51;95518.78;10164305;29;20016;-77
2021/10/05 21:52:53;;;;;;;9.73;3.33;;;;;;;11.70;93.90;95515.53;10163432;29;20013;-72
2021/10/05 21:57:54;;;;;;;16.23;3.92;;;;;;;11.61;95.77;95534.06;10162353;29;20286;-71
2021/10/05 22:02:55;;;;;;;8.60;4.10;;;;;;;11.52;97.80;95540.19;10162296;29;20071;-75
2021/10/05 22:07:55;;;;;;;11.02;4.03;;;;;;;11.48;99.77;95544.47;10162681;29;20466;-76
2021/10/05 22:12:56;;;;;;;9.40;4.53;;;;;;;11.40;100.00;95530.41;10163827;29;20506;-70
2021/10/05 22:17:57;;;;;;;8.18;4.18;;;;;;;11.19;100.00;95536.69;10161898;29;20036;-72
2021/10/05 22:22:57;;;;;;;6.03;4.00;;;;;;;11.02;100.00;95543.00;10162950;29;20479;-71
2021/10/05 22:27:58;;;;;;;7.50;4.40;;;;;;;10.87;100.00;95543.72;10162296;29;20036;-71
2021/10/05 22:32:58;;;;;;;6.53;4.05;;;;;;;10.66;100.00;95542.69;10178451;29;20596;-70
2021/10/05 22:37:59;;;;;;;15.20;4.55;;;;;;;10.57;100.00;95544.22;10177605;29;20551;-70
2021/10/05 22:42:59;;;;;;;17.65;6.03;;;;;;;10.46;100.00;95558.59;10178186;29;20486;-76
2021/10/05 22:48:00;;;;;;;9.55;4.78;;;;;;;10.33;100.00;95557.91;10178287;29;20032;-69
2021/10/05 22:53:00;;;;;;;8.52;5.72;;;;;;;10.21;100.00;95557.22;10146715;29;20065;-70
2021/10/05 22:58:01;;;;;;;9.05;5.80;;;;;;;10.16;100.00;95551.75;10161951;29;20023;-72
2021/10/05 23:03:01;;;;;;;12.85;6.68;;;;;;;9.99;100.00;95547.28;10177914;29;20055;-71